Terminal Aerodrome Forecast
Issued by NWS

Home | Current Version | Previous Version | Text Only | Print | Product List | Glossary On
Versions: 1 2 3 4 5 6 7 8 9 10 11 12 13 14 15 16
000
FTAK31 PANC 260902 AAA
TAFAVD
TAF AMD
PAVD 260902Z 2609/2706 08004KT P6SM BKN040
     FM261200 VRB03KT P6SM OVC040
     FM262100 25008KT P6SM VCSH OVC035
     FM270300 26008KT P6SM -RA OVC025
      AMD LTD TO CLD VIS AND WIND=

USA.gov is the U.S. government's official web portal to all federal, state and local government web resources and services.